sensor_id;sensor_type;location;lat;lon;timestamp;pressure;altitude;pressure_sealevel;temperature;humidity
60345;BME280;46188;52.324;8.032;2023-04-01T00:01:20;98233.34;;;9.31;100.00
60345;BME280;46188;52.324;8.032;2023-04-01T00:03:46;98232.50;;;9.30;100.00
60345;BME280;46188;52.324;8.032;2023-04-01T00:06:16;98228.16;;;9.28;100.00
60345;BME280;46188;52.324;8.032;2023-04-01T00:08:41;98229.91;;;9.29;100.00
60345;BME280;46188;52.324;8.032;2023-04-01T00:11:07;98227.31;;;9.26;100.00
60345;BME280;46188;52.324;8.032;2023-04-01T00:13:32;98222.13;;;9.22;100.00
60345;BME280;46188;52.324;8.032;2023-04-01T00:15:58;98226.56;;;9.20;100.00
60345;BME280;46188;52.324;8.032;2023-04-01T00:18:25;98227.38;;;9.22;100.00
60345;BME280;46188;52.324;8.032;2023-04-01T00:20:51;98222.13;;;9.22;100.00
60345;BME280;46188;52.324;8.032;2023-04-01T00:23:18;98215.13;;;9.21;100.00
60345;BME280;46188;52.324;8.032;2023-04-01T00:25:44;98220.38;;;9.21;100.00
60345;BME280;46188;52.324;8.032;2023-04-01T00:28:12;98230.09;;;9.18;100.00
60345;BME280;46188;52.324;8.032;2023-04-01T00:30:37;98214.38;;;9.15;100.00
60345;BME280;46188;52.324;8.032;2023-04-01T00:33:03;98218.75;;;9.16;100.00
60345;BME280;46188;52.324;8.032;2023-04-01T00:35:28;98213.47;;;9.17;100.00
60345;BME280;46188;52.324;8.032;2023-04-01T00:37:54;98215.25;;;9.17;100.00
60345;BME280;46188;52.324;8.032;2023-04-01T00:40:34;98216.97;;;9.16;100.00
60345;BME280;46188;52.324;8.032;2023-04-01T00:43:00;98217.97;;;9.11;100.00
60345;BME280;46188;52.324;8.032;2023-04-01T00:45:35;98211.84;;;9.10;100.00
60345;BME280;46188;52.324;8.032;2023-04-01T00:48:05;98216.22;;;9.11;100.00
60345;BME280;46188;52.324;8.032;2023-04-01T00:50:33;98220.59;;;9.12;100.00
60345;BME280;46188;52.324;8.032;2023-04-01T00:53:00;98210.16;;;9.08;100.00
60345;BME280;46188;52.324;8.032;2023-04-01T00:55:29;98211.94;;;9.07;100.00
60345;BME280;46188;52.324;8.032;2023-04-01T00:57:57;98214.56;;;9.05;100.00
60345;BME280;46188;52.324;8.032;2023-04-01T01:00:23;98210.19;;;9.06;100.00
60345;BME280;46188;52.324;8.032;2023-04-01T01:02:50;98218.03;;;9.08;100.00
60345;BME280;46188;52.324;8.032;2023-04-01T01:05:16;98211.97;;;9.04;100.00
60345;BME280;46188;52.324;8.032;2023-04-01T01:10:39;98204.03;;;9.07;100.00
60345;BME280;46188;52.324;8.032;2023-04-01T01:13:13;98214.44;;;9.12;100.00
60345;BME280;46188;52.324;8.032;2023-04-01T01:15:51;98206.66;;;9.07;100.00
60345;BME280;46188;52.324;8.032;2023-04-01T01:18:39;98212.84;;;9.04;100.00
60345;BME280;46188;52.324;8.032;2023-04-01T01:21:32;98210.22;;;9.03;100.00
60345;BME280;46188;52.324;8.032;2023-04-01T01:26:56;98203.13;;;9.08;100.00
60345;BME280;46188;52.324;8.032;2023-04-01T01:32:34;98213.69;;;9.05;100.00
60345;BME280;46188;52.324;8.032;2023-04-01T01:36:00;98198.78;;;9.07;100.00
60345;BME280;46188;52.324;8.032;2023-04-01T01:38:09;98206.66;;;9.07;100.00
60345;BME280;46188;52.324;8.032;2023-04-01T01:40:38;98202.31;;;9.04;100.00
60345;BME280;46188;52.324;8.032;2023-04-01T01:43:06;98193.56;;;9.05;100.00
60345;BME280;46188;52.324;8.032;2023-04-01T01:45:35;98204.91;;;9.06;100.00
60345;BME280;46188;52.324;8.032;2023-04-01T01:48:04;98196.06;;;9.10;100.00
60345;BME280;46188;52.324;8.032;2023-04-01T01:50:31;98197.88;;;9.08;100.00
60345;BME280;46188;52.324;8.032;2023-04-01T01:53:04;98204.03;;;9.07;100.00
60345;BME280;46188;52.324;8.032;2023-04-01T01:55:36;98198.91;;;9.01;100.00
60345;BME280;46188;52.324;8.032;2023-04-01T01:58:19;98195.38;;;9.02;100.00
60345;BME280;46188;52.324;8.032;2023-04-01T02:00:51;98201.47;;;9.04;100.00
60345;BME280;46188;52.324;8.032;2023-04-01T02:03:21;98197.91;;;9.05;100.00
60345;BME280;46188;52.324;8.032;2023-04-01T02:05:50;98202.31;;;9.04;100.00
60345;BME280;46188;52.324;8.032;2023-04-01T02:08:21;98204.09;;;9.04;100.00
60345;BME280;46188;52.324;8.032;2023-04-01T02:10:55;98198.88;;;9.02;100.00
60345;BME280;46188;52.324;8.032;2023-04-01T02:13:29;98197.06;;;9.04;100.00
60345;BME280;46188;52.324;8.032;2023-04-01T02:16:00;98198.88;;;9.02;100.00
60345;BME280;46188;52.324;8.032;2023-04-01T02:18:28;98193.59;;;9.02;100.00
60345;BME280;46188;52.324;8.032;2023-04-01T02:20:54;98199.84;;;8.95;100.00
60345;BME280;46188;52.324;8.032;2023-04-01T02:23:21;98202.59;;;8.91;100.00
60345;BME280;46188;52.324;8.032;2023-04-01T02:25:46;98198.22;;;8.90;100.00
60345;BME280;46188;52.324;8.032;2023-04-01T02:28:13;98194.72;;;8.91;100.00
60345;BME280;46188;52.324;8.032;2023-04-01T02:30:41;98194.75;;;8.89;100.00
60345;BME280;46188;52.324;8.032;2023-04-01T02:33:08;98200.81;;;8.93;100.00
60345;BME280;46188;52.324;8.032;2023-04-01T02:35:35;98203.38;;;8.96;100.00
60345;BME280;46188;52.324;8.032;2023-04-01T02:38:02;98201.66;;;8.93;100.00
60345;BME280;46188;52.324;8.032;2023-04-01T02:40:28;98195.50;;;8.94;100.00
60345;BME280;46188;52.324;8.032;2023-04-01T02:42:53;98195.53;;;8.93;100.00
60345;BME280;46188;52.324;8.032;2023-04-01T02:45:18;98197.31;;;8.92;100.00
60345;BME280;46188;52.324;8.032;2023-04-01T02:47:44;98200.81;;;8.93;100.00
60345;BME280;46188;52.324;8.032;2023-04-01T02:50:09;98200.84;;;8.90;100.00
60345;BME280;46188;52.324;8.032;2023-04-01T02:52:35;98203.44;;;8.93;100.00
60345;BME280;46188;52.324;8.032;2023-04-01T02:55:01;98205.16;;;8.94;100.00
60345;BME280;46188;52.324;8.032;2023-04-01T02:57:26;98204.34;;;8.90;100.00
60345;BME280;46188;52.324;8.032;2023-04-01T02:59:52;98211.34;;;8.91;100.00
60345;BME280;46188;52.324;8.032;2023-04-01T03:02:17;98212.19;;;8.92;100.00
60345;BME280;46188;52.324;8.032;2023-04-01T03:04:43;98202.59;;;8.91;100.00
60345;BME280;46188;52.324;8.032;2023-04-01T03:07:09;98205.22;;;8.91;100.00
60345;BME280;46188;52.324;8.032;2023-04-01T03:09:36;98202.59;;;8.91;100.00
60345;BME280;46188;52.324;8.032;2023-04-01T03:12:02;98209.59;;;8.90;100.00
60345;BME280;46188;52.324;8.032;2023-04-01T03:14:27;98208.69;;;8.93;100.00
60345;BME280;46188;52.324;8.032;2023-04-01T03:16:52;98208.72;;;8.90;100.00
60345;BME280;46188;52.324;8.032;2023-04-01T03:19:18;98208.72;;;8.90;100.00
60345;BME280;46188;52.324;8.032;2023-04-01T03:21:43;98205.22;;;8.91;100.00
60345;BME280;46188;52.324;8.032;2023-04-01T03:24:08;98213.09;;;8.92;100.00
60345;BME280;46188;52.324;8.032;2023-04-01T03:26:34;98212.25;;;8.89;100.00
60345;BME280;46188;52.324;8.032;2023-04-01T03:28:59;98210.50;;;8.89;100.00
60345;BME280;46188;52.324;8.032;2023-04-01T03:31:24;98212.19;;;8.92;100.00
60345;BME280;46188;52.324;8.032;2023-04-01T03:33:50;98210.44;;;8.92;100.00
60345;BME280;46188;52.324;8.032;2023-04-01T03:36:15;98213.09;;;8.92;100.00
60345;BME280;46188;52.324;8.032;2023-04-01T03:38:41;98209.56;;;8.92;100.00
60345;BME280;46188;52.324;8.032;2023-04-01T03:41:07;98217.41;;;8.93;100.00
60345;BME280;46188;52.324;8.032;2023-04-01T03:43:33;98211.31;;;8.93;100.00
60345;BME280;46188;52.324;8.032;2023-04-01T03:45:58;98213.94;;;8.93;100.00
60345;BME280;46188;52.324;8.032;2023-04-01T03:48:24;98213.94;;;8.93;100.00
60345;BME280;46188;52.324;8.032;2023-04-01T03:50:50;98210.47;;;8.91;100.00
60345;BME280;46188;52.324;8.032;2023-04-01T03:53:15;98217.41;;;8.93;100.00
60345;BME280;46188;52.324;8.032;2023-04-01T03:55:41;98213.13;;;8.89;100.00
60345;BME280;46188;52.324;8.032;2023-04-01T03:58:07;98213.13;;;8.89;100.00
60345;BME280;46188;52.324;8.032;2023-04-01T04:00:32;98207.06;;;8.85;100.00
60345;BME280;46188;52.324;8.032;2023-04-01T04:02:58;98208.81;;;8.85;100.00
60345;BME280;46188;52.324;8.032;2023-04-01T04:05:25;98210.59;;;8.84;100.00
60345;BME280;46188;52.324;8.032;2023-04-01T04:07:51;98204.47;;;8.84;100.00
60345;BME280;46188;52.324;8.032;2023-04-01T04:10:17;98213.16;;;8.88;100.00
60345;BME280;46188;52.324;8.032;2023-04-01T04:12:43;98211.38;;;8.88;100.00
60345;BME280;46188;52.324;8.032;2023-04-01T04:15:09;98214.06;;;8.85;100.00
60345;BME280;46188;52.324;8.032;2023-04-01T04:17:34;98207.06;;;8.87;100.00
60345;BME280;46188;52.324;8.032;2023-04-01T04:20:00;98214.94;;;8.87;100.00
60345;BME280;46188;52.324;8.032;2023-04-01T04:22:25;98215.84;;;8.84;100.00
60345;BME280;46188;52.324;8.032;2023-04-01T04:24:51;98215.78;;;8.88;100.00
60345;BME280;46188;52.324;8.032;2023-04-01T04:27:16;98219.25;;;8.90;100.00
60345;BME280;46188;52.324;8.032;2023-04-01T04:29:41;98217.50;;;8.89;100.00
60345;BME280;46188;52.324;8.032;2023-04-01T04:32:07;98218.47;;;8.84;100.00
60345;BME280;46188;52.324;8.032;2023-04-01T04:34:32;98220.28;;;8.81;100.00
60345;BME280;46188;52.324;8.032;2023-04-01T04:36:57;98224.63;;;8.82;100.00
60345;BME280;46188;52.324;8.032;2023-04-01T04:39:23;98224.66;;;8.80;100.00
60345;BME280;46188;52.324;8.032;2023-04-01T04:41:48;98220.31;;;8.79;100.00
60345;BME280;46188;52.324;8.032;2023-04-01T04:44:14;98230.84;;;8.78;100.00
60345;BME280;46188;52.324;8.032;2023-04-01T04:46:39;98234.34;;;8.78;100.00
60345;BME280;46188;52.324;8.032;2023-04-01T04:49:05;98229.91;;;8.80;100.00
60345;BME280;46188;52.324;8.032;2023-04-01T04:51:31;98236.06;;;8.81;100.00
60345;BME280;46188;52.324;8.032;2023-04-01T04:53:59;98247.41;;;8.81;100.00
60345;BME280;46188;52.324;8.032;2023-04-01T04:56:25;98238.75;;;8.76;100.00
60345;BME280;46188;52.324;8.032;2023-04-01T04:58:51;98243.16;;;8.76;100.00
60345;BME280;46188;52.324;8.032;2023-04-01T05:01:17;98250.97;;;8.79;100.00
60345;BME280;46188;52.324;8.032;2023-04-01T05:03:43;98250.09;;;8.78;100.00
60345;BME280;46188;52.324;8.032;2023-04-01T05:06:09;98244.84;;;8.78;100.00
60345;BME280;46188;52.324;8.032;2023-04-01T05:08:36;98254.47;;;8.79;100.00
60345;BME280;46188;52.324;8.032;2023-04-01T05:11:02;98254.44;;;8.81;100.00
60345;BME280;46188;52.324;8.032;2023-04-01T05:13:28;98250.13;;;8.77;100.00
60345;BME280;46188;52.324;8.032;2023-04-01T05:15:53;98256.25;;;8.77;100.00
60345;BME280;46188;52.324;8.032;2023-04-01T05:18:19;98258.91;;;8.76;100.00
60345;BME280;46188;52.324;8.032;2023-04-01T05:20:52;98256.25;;;8.77;100.00
60345;BME280;46188;52.324;8.032;2023-04-01T05:23:18;98252.72;;;8.78;100.00
60345;BME280;46188;52.324;8.032;2023-04-01T05:25:43;98263.19;;;8.80;100.00
60345;BME280;46188;52.324;8.032;2023-04-01T05:28:10;98269.41;;;8.77;100.00
60345;BME280;46188;52.324;8.032;2023-04-01T05:30:35;98260.63;;;8.77;100.00
60345;BME280;46188;52.324;8.032;2023-04-01T05:33:01;98265.00;;;8.78;100.00
60345;BME280;46188;52.324;8.032;2023-04-01T05:35:26;98266.78;;;8.76;100.00
60345;BME280;46188;52.324;8.032;2023-04-01T05:37:51;98272.94;;;8.75;100.00
60345;BME280;46188;52.324;8.032;2023-04-01T05:40:17;98272.94;;;8.75;100.00
60345;BME280;46188;52.324;8.032;2023-04-01T05:42:43;98269.41;;;8.76;100.00
60345;BME280;46188;52.324;8.032;2023-04-01T05:45:08;98273.78;;;8.75;100.00
60345;BME280;46188;52.324;8.032;2023-04-01T05:47:34;98280.78;;;8.76;100.00
60345;BME280;46188;52.324;8.032;2023-04-01T05:49:59;98278.13;;;8.78;100.00
60345;BME280;46188;52.324;8.032;2023-04-01T05:52:25;98283.38;;;8.78;100.00
60345;BME280;46188;52.324;8.032;2023-04-01T05:54:50;98276.38;;;8.78;100.00
60345;BME280;46188;52.324;8.032;2023-04-01T05:57:16;98284.22;;;8.80;100.00
60345;BME280;46188;52.324;8.032;2023-04-01T05:59:41;98283.34;;;8.81;100.00
60345;BME280;46188;52.324;8.032;2023-04-01T06:02:08;98278.09;;;8.81;100.00
60345;BME280;46188;52.324;8.032;2023-04-01T06:04:37;98286.81;;;8.81;100.00
60345;BME280;46188;52.324;8.032;2023-04-01T06:07:17;98285.03;;;8.83;100.00
60345;BME280;46188;52.324;8.032;2023-04-01T06:09:44;98288.53;;;8.85;100.00
60345;BME280;46188;52.324;8.032;2023-04-01T06:15:20;98290.22;;;8.86;100.00
60345;BME280;46188;52.324;8.032;2023-04-01T06:20:28;98295.50;;;8.85;100.00
60345;BME280;46188;52.324;8.032;2023-04-01T06:23:33;98305.13;;;8.88;100.00
60345;BME280;46188;52.324;8.032;2023-04-01T06:31:16;98312.00;;;8.95;100.00
60345;BME280;46188;52.324;8.032;2023-04-01T06:39:37;98311.16;;;8.93;100.00
60345;BME280;46188;52.324;8.032;2023-04-01T06:47:26;98315.59;;;8.91;100.00
60345;BME280;46188;52.324;8.032;2023-04-01T06:50:21;98319.94;;;8.90;100.00
60345;BME280;46188;52.324;8.032;2023-04-01T06:52:58;98320.78;;;8.94;100.00
60345;BME280;46188;52.324;8.032;2023-04-01T06:55:32;98320.78;;;8.94;100.00
60345;BME280;46188;52.324;8.032;2023-04-01T06:58:04;98323.41;;;8.94;100.00
60345;BME280;46188;52.324;8.032;2023-04-01T07:00:36;98321.63;;;8.96;100.00
60345;BME280;46188;52.324;8.032;2023-04-01T07:03:16;98332.97;;;8.98;100.00
60345;BME280;46188;52.324;8.032;2023-04-01T07:05:43;98327.75;;;8.95;100.00
60345;BME280;46188;52.324;8.032;2023-04-01T07:08:13;98338.28;;;8.95;100.00
60345;BME280;46188;52.324;8.032;2023-04-01T07:10:50;98333.00;;;8.96;100.00
60345;BME280;46188;52.324;8.032;2023-04-01T07:15:56;98339.09;;;8.98;100.00
60345;BME280;46188;52.324;8.032;2023-04-01T07:18:30;98342.59;;;8.99;100.00
60345;BME280;46188;52.324;8.032;2023-04-01T07:20:58;98341.72;;;8.98;100.00
60345;BME280;46188;52.324;8.032;2023-04-01T07:23:32;98344.34;;;8.98;100.00
60345;BME280;46188;52.324;8.032;2023-04-01T07:26:14;98359.25;;;8.98;100.00
60345;BME280;46188;52.324;8.032;2023-04-01T07:28:40;98364.44;;;9.02;100.00
60345;BME280;46188;52.324;8.032;2023-04-01T07:34:24;98361.75;;;9.05;100.00
60345;BME280;46188;52.324;8.032;2023-04-01T07:37:15;98362.63;;;9.06;100.00
60345;BME280;46188;52.324;8.032;2023-04-01T07:40:08;98366.09;;;9.07;100.00
60345;BME280;46188;52.324;8.032;2023-04-01T07:45:45;98376.50;;;9.14;100.00
60345;BME280;46188;52.324;8.032;2023-04-01T07:48:22;98384.28;;;9.20;100.00
60345;BME280;46188;52.324;8.032;2023-04-01T07:53:39;98383.22;;;9.31;100.00
60345;BME280;46188;52.324;8.032;2023-04-01T07:56:12;98388.38;;;9.37;100.00
60345;BME280;46188;52.324;8.032;2023-04-01T08:01:39;98393.53;;;9.41;100.00
60345;BME280;46188;52.324;8.032;2023-04-01T08:07:10;98404.91;;;9.45;100.00
60345;BME280;46188;52.324;8.032;2023-04-01T08:10:18;98403.16;;;9.44;100.00
60345;BME280;46188;52.324;8.032;2023-04-01T08:13:10;98406.63;;;9.46;100.00
60345;BME280;46188;52.324;8.032;2023-04-01T08:16:03;98410.06;;;9.48;100.00
60345;BME280;46188;52.324;8.032;2023-04-01T08:18:48;98413.53;;;9.52;100.00
60345;BME280;46188;52.324;8.032;2023-04-01T08:21:35;98416.06;;;9.56;100.00
60345;BME280;46188;52.324;8.032;2023-04-01T08:24:11;98424.84;;;9.57;100.00
60345;BME280;46188;52.324;8.032;2023-04-01T08:26:45;98421.34;;;9.56;100.00
60345;BME280;46188;52.324;8.032;2023-04-01T08:29:21;98427.34;;;9.63;100.00
60345;BME280;46188;52.324;8.032;2023-04-01T08:32:03;98433.50;;;9.64;100.00
60345;BME280;46188;52.324;8.032;2023-04-01T08:34:35;98430.81;;;9.67;100.00
60345;BME280;46188;52.324;8.032;2023-04-01T08:37:21;98434.28;;;9.69;100.00
60345;BME280;46188;52.324;8.032;2023-04-01T08:39:57;98437.00;;;9.63;100.00
60345;BME280;46188;52.324;8.032;2023-04-01T08:42:36;98437.94;;;9.60;100.00
60345;BME280;46188;52.324;8.032;2023-04-01T08:45:29;98439.63;;;9.64;100.00
60345;BME280;46188;52.324;8.032;2023-04-01T08:48:32;98440.44;;;9.68;100.00
60345;BME280;46188;52.324;8.032;2023-04-01T08:57:15;98460.41;;;9.78;100.00
60345;BME280;46188;52.324;8.032;2023-04-01T09:05:29;98459.38;;;9.88;100.00
60345;BME280;46188;52.324;8.032;2023-04-01T09:08:07;98466.31;;;9.91;100.00
60345;BME280;46188;52.324;8.032;2023-04-01T09:14:21;98471.53;;;9.94;100.00
60345;BME280;46188;52.324;8.032;2023-04-01T09:22:12;98475.66;;;10.07;100.00
60345;BME280;46188;52.324;8.032;2023-04-01T09:28:09;98488.75;;;10.12;100.00
60345;BME280;46188;52.324;8.032;2023-04-01T09:36:38;98493.66;;;10.30;100.00
60345;BME280;46188;52.324;8.032;2023-04-01T09:44:37;98503.00;;;10.47;100.00
60345;BME280;46188;52.324;8.032;2023-04-01T09:47:21;98498.72;;;10.43;100.00
60345;BME280;46188;52.324;8.032;2023-04-01T09:50:17;98514.50;;;10.44;100.00
60345;BME280;46188;52.324;8.032;2023-04-01T10:06:55;98511.19;;;10.77;100.00
60345;BME280;46188;52.324;8.032;2023-04-01T10:12:41;98519.75;;;10.86;100.00
60345;BME280;46188;52.324;8.032;2023-04-01T10:15:16;98525.13;;;10.82;100.00
60345;BME280;46188;52.324;8.032;2023-04-01T10:20:40;98523.31;;;10.84;100.00
60345;BME280;46188;52.324;8.032;2023-04-01T10:23:46;98523.16;;;10.92;100.00
60345;BME280;46188;52.324;8.032;2023-04-01T10:26:36;98532.66;;;10.99;100.00
60345;BME280;46188;52.324;8.032;2023-04-01T10:34:45;98530.84;;;11.02;100.00
60345;BME280;46188;52.324;8.032;2023-04-01T10:40:06;98529.97;;;11.02;100.00
60345;BME280;46188;52.324;8.032;2023-04-01T10:43:06;98538.53;;;11.12;100.00
60345;BME280;46188;52.324;8.032;2023-04-01T10:45:59;98536.69;;;11.15;100.00
60345;BME280;46188;52.324;8.032;2023-04-01T10:48:59;98541.00;;;11.21;100.00
60345;BME280;46188;52.324;8.032;2023-04-01T10:55:10;98541.44;;;11.38;100.00
60345;BME280;46188;52.324;8.032;2023-04-01T10:58:05;98544.94;;;11.40;100.00
60345;BME280;46188;52.324;8.032;2023-04-01T11:14:36;98557.00;;;11.12;100.00
60345;BME280;46188;52.324;8.032;2023-04-01T11:17:52;98567.63;;;11.08;100.00
60345;BME280;46188;52.324;8.032;2023-04-01T11:21:01;98571.16;;;11.07;100.00
60345;BME280;46188;52.324;8.032;2023-04-01T11:23:43;98571.25;;;11.03;100.00
60345;BME280;46188;52.324;8.032;2023-04-01T11:26:33;98575.78;;;10.98;100.00
60345;BME280;46188;52.324;8.032;2023-04-01T11:29:27;98581.91;;;10.98;100.00
60345;BME280;46188;52.324;8.032;2023-04-01T11:32:11;98585.31;;;11.03;100.00
60345;BME280;46188;52.324;8.032;2023-04-01T11:34:48;98594.81;;;11.12;100.00
60345;BME280;46188;52.324;8.032;2023-04-01T11:45:39;98598.66;;;11.36;100.00
60345;BME280;46188;52.324;8.032;2023-04-01T11:48:22;98602.03;;;11.43;100.00
60345;BME280;46188;52.324;8.032;2023-04-01T11:57:05;98609.91;;;11.44;100.00
60345;BME280;46188;52.324;8.032;2023-04-01T12:08:39;98619.22;;;11.20;100.00
60345;BME280;46188;52.324;8.032;2023-04-01T12:11:26;98633.41;;;11.15;100.00
60345;BME280;46188;52.324;8.032;2023-04-01T12:14:32;98629.09;;;11.12;100.00
60345;BME280;46188;52.324;8.032;2023-04-01T12:17:26;98636.16;;;11.08;100.00
60345;BME280;46188;52.324;8.032;2023-04-01T12:31:28;98652.38;;;10.90;100.00
60345;BME280;46188;52.324;8.032;2023-04-01T12:34:11;98653.16;;;10.94;100.00
60345;BME280;46188;52.324;8.032;2023-04-01T12:37:04;98657.59;;;10.93;100.00
60345;BME280;46188;52.324;8.032;2023-04-01T12:42:30;98666.38;;;10.92;100.00
60345;BME280;46188;52.324;8.032;2023-04-01T12:45:27;98680.63;;;10.82;100.00
60345;BME280;46188;52.324;8.032;2023-04-01T12:55:42;98693.91;;;10.76;100.00
60345;BME280;46188;52.324;8.032;2023-04-01T13:04:28;98697.47;;;10.75;100.00
60345;BME280;46188;52.324;8.032;2023-04-01T13:10:02;98705.47;;;10.68;100.00
60345;BME280;46188;52.324;8.032;2023-04-01T13:15:25;98712.47;;;10.73;100.00
60345;BME280;46188;52.324;8.032;2023-04-01T13:18:18;98712.47;;;10.73;100.00
60345;BME280;46188;52.324;8.032;2023-04-01T13:21:01;98714.22;;;10.70;100.00
60345;BME280;46188;52.324;8.032;2023-04-01T13:23:43;98720.34;;;10.74;100.00
60345;BME280;46188;52.324;8.032;2023-04-01T13:26:29;98727.25;;;10.80;100.00
60345;BME280;46188;52.324;8.032;2023-04-01T13:31:54;98722.59;;;10.94;100.00
60345;BME280;46188;52.324;8.032;2023-04-01T13:37:31;98732.06;;;11.04;100.00
60345;BME280;46188;52.324;8.032;2023-04-01T13:42:53;98737.03;;;11.21;100.00
60345;BME280;46188;52.324;8.032;2023-04-01T13:45:24;98742.31;;;11.20;100.00
60345;BME280;46188;52.324;8.032;2023-04-01T13:50:51;98747.63;;;11.18;100.00
60345;BME280;46188;52.324;8.032;2023-04-01T13:54:10;98749.28;;;11.24;100.00
60345;BME280;46188;52.324;8.032;2023-04-01T13:59:44;98755.31;;;11.31;100.00
60345;BME280;46188;52.324;8.032;2023-04-01T14:02:36;98760.41;;;11.38;100.00
60345;BME280;46188;52.324;8.032;2023-04-01T14:05:20;98758.50;;;11.47;100.00
60345;BME280;46188;52.324;8.032;2023-04-01T14:10:58;98763.91;;;11.40;100.00
60345;BME280;46188;52.324;8.032;2023-04-01T14:13:43;98774.75;;;11.25;100.00
60345;BME280;46188;52.324;8.032;2023-04-01T14:19:08;98783.59;;;11.24;100.00
60345;BME280;46188;52.324;8.032;2023-04-01T14:27:58;98802.09;;;11.21;100.00
60345;BME280;46188;52.324;8.032;2023-04-01T14:34:05;98814.59;;;11.10;100.00
60345;BME280;46188;52.324;8.032;2023-04-01T14:39:36;98819.00;;;11.11;100.00
60345;BME280;46188;52.324;8.032;2023-04-01T14:45:29;98825.31;;;10.99;100.00
60345;BME280;46188;52.324;8.032;2023-04-01T14:48:17;98835.09;;;10.94;100.00
60345;BME280;46188;52.324;8.032;2023-04-01T14:50:49;98831.59;;;10.92;100.00
60345;BME280;46188;52.324;8.032;2023-04-01T14:55:50;98837.09;;;10.79;100.00
60345;BME280;46188;52.324;8.032;2023-04-01T14:58:18;98837.09;;;10.79;100.00
60345;BME280;46188;52.324;8.032;2023-04-01T15:00:50;98844.91;;;10.84;100.00
60345;BME280;46188;52.324;8.032;2023-04-01T15:09:30;98851.38;;;10.66;100.00
60345;BME280;46188;52.324;8.032;2023-04-01T15:15:02;98867.25;;;10.60;100.00
60345;BME280;46188;52.324;8.032;2023-04-01T15:17:33;98867.31;;;10.55;100.00
60345;BME280;46188;52.324;8.032;2023-04-01T15:20:33;98877.13;;;10.45;100.00
60345;BME280;46188;52.324;8.032;2023-04-01T15:34:50;98919.72;;;10.08;100.00
60345;BME280;46188;52.324;8.032;2023-04-01T15:39:57;98920.75;;;9.95;100.00
60345;BME280;46188;52.324;8.032;2023-04-01T15:42:50;98934.00;;;9.87;100.00
60345;BME280;46188;52.324;8.032;2023-04-01T15:45:42;98942.88;;;9.78;100.00
60345;BME280;46188;52.324;8.032;2023-04-01T15:48:20;98951.66;;;9.76;100.00
60345;BME280;46188;52.324;8.032;2023-04-01T16:02:00;98989.78;;;9.32;100.00
60345;BME280;46188;52.324;8.032;2023-04-01T16:04:39;98988.03;;;9.26;100.00
60345;BME280;46188;52.324;8.032;2023-04-01T16:07:37;98999.50;;;9.17;100.00
60345;BME280;46188;52.324;8.032;2023-04-01T16:10:23;99010.03;;;9.13;100.00
60345;BME280;46188;52.324;8.032;2023-04-01T16:18:45;99010.16;;;8.99;100.00
60345;BME280;46188;52.324;8.032;2023-04-01T16:23:55;99029.53;;;8.78;100.00
60345;BME280;46188;52.324;8.032;2023-04-01T16:26:37;99032.19;;;8.70;100.00
60345;BME280;46188;52.324;8.032;2023-04-01T16:29:19;99039.22;;;8.63;100.00
60345;BME280;46188;52.324;8.032;2023-04-01T16:34:21;99053.28;;;8.53;100.00
60345;BME280;46188;52.324;8.032;2023-04-01T16:36:52;99055.91;;;8.48;100.00
60345;BME280;46188;52.324;8.032;2023-04-01T16:39:30;99063.78;;;8.48;100.00
60345;BME280;46188;52.324;8.032;2023-04-01T16:42:19;99062.91;;;8.40;100.00
60345;BME280;46188;52.324;8.032;2023-04-01T16:45:15;99074.31;;;8.36;100.00
60345;BME280;46188;52.324;8.032;2023-04-01T16:47:49;99068.19;;;8.31;100.00
60345;BME280;46188;52.324;8.032;2023-04-01T16:50:22;99089.19;;;8.28;100.00
60345;BME280;46188;52.324;8.032;2023-04-01T16:55:56;99108.47;;;8.19;100.00
60345;BME280;46188;52.324;8.032;2023-04-01T16:58:37;99108.47;;;8.16;100.00
60345;BME280;46188;52.324;8.032;2023-04-01T17:01:24;99117.22;;;8.10;100.00
60345;BME280;46188;52.324;8.032;2023-04-01T17:04:21;99121.59;;;8.05;100.00
60345;BME280;46188;52.324;8.032;2023-04-01T17:09:39;99133.84;;;7.97;100.00
60345;BME280;46188;52.324;8.032;2023-04-01T17:12:16;99136.47;;;7.92;100.00
60345;BME280;46188;52.324;8.032;2023-04-01T17:14:52;99152.22;;;7.89;100.00
60345;BME280;46188;52.324;8.032;2023-04-01T17:25:28;99167.91;;;7.69;100.00
60345;BME280;46188;52.324;8.032;2023-04-01T17:30:34;99195.03;;;7.70;100.00
60345;BME280;46188;52.324;8.032;2023-04-01T17:33:25;99194.16;;;7.71;100.00
60345;BME280;46188;52.324;8.032;2023-04-01T17:41:42;99212.50;;;7.60;100.00
60345;BME280;46188;52.324;8.032;2023-04-01T17:47:13;99226.47;;;7.48;100.00
60345;BME280;46188;52.324;8.032;2023-04-01T17:50:02;99243.94;;;7.43;100.00
60345;BME280;46188;52.324;8.032;2023-04-01T17:52:39;99245.66;;;7.43;100.00
60345;BME280;46188;52.324;8.032;2023-04-01T17:55:28;99256.97;;;7.34;100.00
60345;BME280;46188;52.324;8.032;2023-04-01T18:11:44;99291.84;;;7.17;100.00
60345;BME280;46188;52.324;8.032;2023-04-01T18:17:21;99307.50;;;7.04;100.00
60345;BME280;46188;52.324;8.032;2023-04-01T18:20:19;99313.63;;;7.06;100.00
60345;BME280;46188;52.324;8.032;2023-04-01T18:23:02;99329.31;;;7.01;100.00
60345;BME280;46188;52.324;8.032;2023-04-01T18:25:44;99327.50;;;6.92;100.00
60345;BME280;46188;52.324;8.032;2023-04-01T18:36:43;99355.28;;;6.75;100.00
60345;BME280;46188;52.324;8.032;2023-04-01T18:39:32;99362.28;;;6.73;100.00
60345;BME280;46188;52.324;8.032;2023-04-01T18:44:56;99373.66;;;6.76;100.00
60345;BME280;46188;52.324;8.032;2023-04-01T18:47:44;99385.81;;;6.71;100.00
60345;BME280;46188;52.324;8.032;2023-04-01T18:50:21;99397.16;;;6.69;100.00
60345;BME280;46188;52.324;8.032;2023-04-01T18:52:56;99395.38;;;6.66;100.00
60345;BME280;46188;52.324;8.032;2023-04-01T18:55:36;99415.44;;;6.62;100.00
60345;BME280;46188;52.324;8.032;2023-04-01T19:03:40;99425.84;;;6.58;100.00
60345;BME280;46188;52.324;8.032;2023-04-01T19:06:20;99437.16;;;6.52;100.00